Date,TemperatureHighF,TemperatureAvgF,TemperatureLowF,DewpointHighF,DewpointAvgF,DewpointLowF,HumidityHigh,HumidityAvg,HumidityLow,PressureMaxIn,PressureMinIn,WindSpeedMaxMPH,WindSpeedAvgMPH,GustSpeedMaxMPH,PrecipitationSumIn
2013-1-1,44,42,38,36,34,29,71,65,60,30.07,29.92,8,3,12,0.00
2013-1-2,38,33,30,29,21,19,61,49,41,30.27,30.02,8,3,14,0.00
2013-1-3,36,32,28,26,21,17,59,52,43,30.29,30.19,11,4,14,0.00
2013-1-4,41,38,35,30,27,24,62,55,47,30.24,30.11,11,6,21,0.00
2013-1-5,41,36,30,34,26,24,76,57,48,30.42,30.17,11,3,17,0.00
2013-1-6,50,42,35,37,34,30,86,68,44,30.33,30.07,6,2,10,0.00
2013-1-7,48,40,29,37,33,25,80,67,51,30.51,30.14,8,2,11,0.00
2013-1-8,54,42,28,40,34,24,89,68,43,30.51,30.42,6,1,9,0.00
2013-1-9,59,47,37,47,40,31,83,68,52,30.45,30.26,7,1,11,0.00
2013-1-10,48,44,37,39,35,28,74,63,53,30.63,30.37,8,2,13,0.00
2013-1-11,52,44,35,51,40,28,94,78,61,30.56,30.12,5,2,13,0.07
2013-1-12,50,44,43,49,43,42,96,94,92,30.22,30.13,4,1,8,0.01
2013-1-13,52,47,42,51,46,41,96,95,90,30.21,30.07,4,1,7,0.01
2013-1-14,57,51,45,56,49,42,97,92,81,30.30,30.03,8,2,13,0.11
2013-1-15,45,39,36,43,38,34,94,92,85,30.38,30.18,11,3,14,0.43
2013-1-16,44,40,36,42,38,34,95,92,87,30.20,29.91,9,2,14,0.31
2013-1-17,43,41,35,41,38,32,93,85,66,30.19,30.02,4,1,9,0.20
2013-1-18,39,35,27,34,24,17,86,55,34,30.59,30.07,11,2,20,0.11
2013-1-19,53,42,34,36,30,20,64,51,33,30.54,30.06,9,3,14,0.02
2013-1-20,54,46,38,40,34,24,63,55,45,30.12,29.85,8,4,15,0.00
2013-1-21,40,34,27,31,22,14,86,50,28,30.20,29.81,12,3,21,0.00
2013-1-22,31,24,19,22,8,3,61,38,28,30.34,29.93,15,7,24,0.07
2013-1-23,25,20,17,6,3,0,41,32,26,30.40,30.23,10,5,18,0.02
2013-1-24,27,22,17,9,5,-1,55,34,25,30.55,30.15,13,4,20,0.00
2013-1-25,25,23,19,19,10,3,74,47,32,30.55,30.11,8,2,12,0.00
2013-1-26,30,26,21,20,16,12,70,56,44,30.48,30.11,9,4,17,0.01
2013-1-27,36,28,23,23,16,11,66,49,41,30.64,30.46,8,2,11,0.01
2013-1-28,42,36,28,38,31,20,87,76,61,30.57,30.10,5,2,12,0.05
2013-1-29,56,45,36,48,41,33,91,82,62,30.22,30.09,4,1,8,0.01
2013-1-30,60,52,46,55,50,44,94,88,75,30.12,29.47,10,4,23,0.00
2013-1-31,57,45,33,55,35,17,94,60,37,29.98,29.26,16,8,30,0.24